createdAt,value
2023-05-15T00:01:26.055Z,4.30
2023-05-15T00:03:55.342Z,8.90
2023-05-15T00:06:23.863Z,5.30
2023-05-15T00:08:52.182Z,9.80
2023-05-15T00:11:21.490Z,6.50
2023-05-15T00:13:51.179Z,8.10
2023-05-15T00:16:19.878Z,4.40
2023-05-15T00:18:48.372Z,12.90
2023-05-15T00:21:17.287Z,7.80
2023-05-15T00:23:47.633Z,7.10
2023-05-15T00:26:15.926Z,6.80
2023-05-15T00:28:44.236Z,6.00
2023-05-15T00:31:13.202Z,6.80
2023-05-15T00:33:41.518Z,5.80
2023-05-15T00:36:11.862Z,4.10
2023-05-15T00:38:40.731Z,4.10
2023-05-15T00:41:11.377Z,7.10
2023-05-15T00:43:41.494Z,4.00
2023-05-15T00:46:10.700Z,5.00
2023-05-15T00:48:39.637Z,5.90
2023-05-15T00:51:08.436Z,7.30
2023-05-15T00:53:38.690Z,7.10
2023-05-15T00:56:09.550Z,10.70
2023-05-15T00:58:38.574Z,5.30
2023-05-15T01:01:08.486Z,5.10
2023-05-15T01:03:38.330Z,8.90
2023-05-15T01:06:06.957Z,4.10
2023-05-15T01:08:39.459Z,6.20
2023-05-15T01:11:09.032Z,8.30
2023-05-15T01:13:37.349Z,7.30
2023-05-15T01:16:08.752Z,7.30
2023-05-15T01:18:37.808Z,5.10
2023-05-15T01:21:06.421Z,3.90
2023-05-15T01:23:59.770Z,5.70
2023-05-15T01:26:46.791Z,7.70
2023-05-15T01:29:27.515Z,5.10
2023-05-15T01:32:02.696Z,5.70
2023-05-15T01:34:46.197Z,5.40
2023-05-15T01:37:22.294Z,7.50
2023-05-15T01:39:56.182Z,5.10
2023-05-15T01:42:31.691Z,5.30
2023-05-15T01:45:05.921Z,4.20
2023-05-15T01:47:42.205Z,8.30
2023-05-15T01:50:13.639Z,4.30
2023-05-15T01:52:48.114Z,7.10
2023-05-15T01:55:19.514Z,3.80
2023-05-15T01:57:50.993Z,5.30
2023-05-15T02:00:19.596Z,3.90
2023-05-15T02:02:50.908Z,6.60
2023-05-15T02:05:20.424Z,6.70
2023-05-15T02:07:49.549Z,6.90
2023-05-15T02:10:18.633Z,4.80
2023-05-15T02:12:50.644Z,3.80
2023-05-15T02:15:21.049Z,6.40
2023-05-15T02:17:49.390Z,4.20
2023-05-15T02:20:17.780Z,9.70
2023-05-15T02:22:46.183Z,8.80
2023-05-15T02:25:16.539Z,4.50
2023-05-15T02:27:57.917Z,7.40
2023-05-15T02:30:45.593Z,3.70
2023-05-15T02:33:22.683Z,8.50
2023-05-15T02:36:03.703Z,10.50
2023-05-15T02:38:51.210Z,4.10
2023-05-15T02:41:23.026Z,6.80
2023-05-15T02:43:52.888Z,5.90
2023-05-15T02:46:22.467Z,4.70
2023-05-15T02:48:51.899Z,9.60
2023-05-15T02:51:21.282Z,4.60
2023-05-15T02:53:49.899Z,5.70
2023-05-15T02:56:18.184Z,4.80
2023-05-15T02:58:46.568Z,7.20
2023-05-15T03:01:14.939Z,4.50
2023-05-15T03:03:43.534Z,4.70
2023-05-15T03:06:11.846Z,8.10
2023-05-15T03:08:40.613Z,5.60
2023-05-15T03:11:08.814Z,4.90
2023-05-15T03:13:37.006Z,7.50
2023-05-15T03:16:06.200Z,8.00
2023-05-15T03:18:34.517Z,7.30
2023-05-15T03:21:02.775Z,6.90
2023-05-15T03:23:32.293Z,4.10
2023-05-15T03:26:00.598Z,7.10
2023-05-15T03:28:28.859Z,5.80
2023-05-15T03:30:57.174Z,5.50
2023-05-15T03:33:26.569Z,6.50
2023-05-15T03:35:55.010Z,8.20
2023-05-15T03:38:23.352Z,5.90
2023-05-15T03:40:51.545Z,7.10
2023-05-15T03:43:19.963Z,5.20
2023-05-15T03:45:50.330Z,7.10
2023-05-15T03:48:18.875Z,7.00
2023-05-15T03:50:47.285Z,6.60
2023-05-15T03:53:15.730Z,6.30
2023-05-15T03:55:44.143Z,6.80
2023-05-15T03:58:12.401Z,9.70
2023-05-15T04:00:40.730Z,7.40
2023-05-15T04:03:09.086Z,9.20
2023-05-15T04:05:37.627Z,9.00
2023-05-15T04:08:07.148Z,5.60
2023-05-15T04:10:35.466Z,7.50
2023-05-15T04:13:03.631Z,4.80
2023-05-15T04:15:32.024Z,7.40
2023-05-15T04:18:00.330Z,4.90
2023-05-15T04:20:28.574Z,8.00
2023-05-15T04:22:57.019Z,9.10
2023-05-15T04:25:25.693Z,6.50
2023-05-15T04:27:54.224Z,6.30
2023-05-15T04:30:22.626Z,7.00
2023-05-15T04:32:52.256Z,10.90
2023-05-15T04:35:20.763Z,8.20
2023-05-15T04:37:51.223Z,10.90
2023-05-15T04:40:19.828Z,8.10
2023-05-15T04:42:48.469Z,6.40
2023-05-15T04:45:16.754Z,8.30
2023-05-15T04:47:45.108Z,5.10
2023-05-15T04:50:13.408Z,6.50
2023-05-15T04:52:43.114Z,6.60
2023-05-15T04:55:11.601Z,7.00
2023-05-15T04:57:40.053Z,6.20
2023-05-15T05:00:12.510Z,5.10
2023-05-15T05:02:43.245Z,4.90
2023-05-15T05:05:11.645Z,5.10
2023-05-15T05:07:40.187Z,11.30
2023-05-15T05:10:09.286Z,6.50
2023-05-15T05:12:37.665Z,4.70
2023-05-15T05:15:06.579Z,5.10
2023-05-15T05:17:34.909Z,5.50
2023-05-15T05:20:03.569Z,7.80
2023-05-15T05:22:31.837Z,6.40
2023-05-15T05:25:00.172Z,5.60
2023-05-15T05:27:28.294Z,7.90
2023-05-15T05:29:56.621Z,9.20
2023-05-15T05:32:25.185Z,6.60
2023-05-15T05:34:53.667Z,7.40
2023-05-15T05:37:21.934Z,6.70
2023-05-15T05:39:50.208Z,5.60
2023-05-15T05:42:18.452Z,7.20
2023-05-15T05:44:46.722Z,5.80
2023-05-15T05:47:15.102Z,7.90
2023-05-15T05:49:43.611Z,5.00
2023-05-15T05:52:11.875Z,5.90
2023-05-15T05:54:40.092Z,5.40
2023-05-15T05:57:10.258Z,6.20
2023-05-15T05:59:38.584Z,4.60
2023-05-15T06:02:08.437Z,6.40
2023-05-15T06:04:37.549Z,7.90
2023-05-15T06:07:05.817Z,9.10
2023-05-15T06:09:34.248Z,7.30
2023-05-15T06:12:04.994Z,5.20
2023-05-15T06:14:33.342Z,7.70
2023-05-15T06:17:01.785Z,4.40
2023-05-15T06:19:30.664Z,6.40
2023-05-15T06:21:58.939Z,5.00
2023-05-15T06:24:27.358Z,4.70
2023-05-15T06:26:55.689Z,7.20
2023-05-15T06:29:23.941Z,4.20
2023-05-15T06:31:52.629Z,8.40
2023-05-15T06:34:20.821Z,4.40
2023-05-15T06:36:49.100Z,8.10
2023-05-15T06:39:17.491Z,4.90
2023-05-15T06:41:45.809Z,4.70
2023-05-15T06:44:14.212Z,5.40
2023-05-15T06:46:42.574Z,3.80
2023-05-15T06:49:10.832Z,7.40
2023-05-15T06:51:39.051Z,4.40
2023-05-15T06:54:07.587Z,4.00
2023-05-15T06:56:35.812Z,4.50
2023-05-15T06:59:04.037Z,4.40
2023-05-15T07:01:32.623Z,4.60
2023-05-15T07:04:00.916Z,5.10
2023-05-15T07:06:31.420Z,7.80
2023-05-15T07:09:00.396Z,6.80
2023-05-15T07:11:29.611Z,5.10
2023-05-15T07:13:57.911Z,6.40
2023-05-15T07:16:26.220Z,4.20
2023-05-15T07:18:54.477Z,5.50
2023-05-15T07:21:22.853Z,4.20
2023-05-15T07:23:51.340Z,4.20
2023-05-15T07:26:28.754Z,5.50
2023-05-15T07:29:01.192Z,4.90
2023-05-15T07:31:31.417Z,4.60
2023-05-15T07:33:59.921Z,8.20
2023-05-15T07:36:28.277Z,6.10
2023-05-15T07:38:56.514Z,4.90
2023-05-15T07:41:24.766Z,6.00
2023-05-15T07:43:53.001Z,4.70
2023-05-15T07:46:21.274Z,4.00
2023-05-15T07:48:49.554Z,5.10
2023-05-15T07:51:17.890Z,8.00
2023-05-15T07:53:46.334Z,4.10
2023-05-15T07:56:14.744Z,2.90
2023-05-15T07:58:42.991Z,3.30
2023-05-15T08:01:11.395Z,3.60
2023-05-15T08:03:39.858Z,4.90
2023-05-15T08:06:08.536Z,4.70
2023-05-15T08:08:36.820Z,4.80
2023-05-15T08:11:05.773Z,4.40
2023-05-15T08:13:34.141Z,3.10
2023-05-15T08:16:02.546Z,2.80
2023-05-15T08:18:31.021Z,5.10
2023-05-15T08:20:59.406Z,3.80
2023-05-15T08:23:27.723Z,3.20
2023-05-15T08:25:55.962Z,3.30
2023-05-15T08:28:24.258Z,3.40
2023-05-15T08:30:52.551Z,3.20
2023-05-15T08:33:20.986Z,2.70
2023-05-15T08:35:49.271Z,4.60
2023-05-15T08:38:17.486Z,4.10
2023-05-15T08:40:49.568Z,6.10
2023-05-15T08:43:18.619Z,6.10
2023-05-15T08:45:48.102Z,2.60
2023-05-15T08:48:17.972Z,5.40
2023-05-15T08:50:47.636Z,2.20
2023-05-15T08:53:16.477Z,5.40
2023-05-15T08:58:28.971Z,2.10
2023-05-15T09:00:59.287Z,2.20
2023-05-15T09:03:29.331Z,2.20
2023-05-15T09:05:59.178Z,1.70
2023-05-15T09:08:32.403Z,1.90
2023-05-15T09:11:04.419Z,2.10
2023-05-15T09:13:32.696Z,1.90
2023-05-15T09:16:00.977Z,1.70
2023-05-15T09:18:30.594Z,1.50
2023-05-15T09:21:22.068Z,4.10
2023-05-15T09:23:50.459Z,3.20
2023-05-15T09:26:18.757Z,4.00
2023-05-15T09:28:47.287Z,2.20
2023-05-15T09:31:20.536Z,1.80
2023-05-15T09:34:01.612Z,2.70
2023-05-15T09:36:30.651Z,2.20
2023-05-15T09:39:01.033Z,2.40
2023-05-15T09:41:29.287Z,0.70
2023-05-15T09:43:57.474Z,1.00
2023-05-15T09:46:26.413Z,2.60
2023-05-15T09:48:55.764Z,2.50
2023-05-15T09:51:24.162Z,2.00
2023-05-15T09:53:53.757Z,2.40
2023-05-15T09:56:22.851Z,2.00
2023-05-15T09:58:59.380Z,2.70
2023-05-15T10:01:27.918Z,1.20
2023-05-15T10:04:01.346Z,3.10
2023-05-15T10:06:39.173Z,2.80
2023-05-15T10:09:11.230Z,2.00
2023-05-15T10:11:43.670Z,1.30
2023-05-15T10:14:13.843Z,2.00
2023-05-15T10:16:42.581Z,4.70
2023-05-15T10:19:13.159Z,5.00
2023-05-15T10:21:42.337Z,1.70
2023-05-15T10:24:12.869Z,5.00
2023-05-15T10:26:43.139Z,2.80
2023-05-15T10:29:18.005Z,2.40
2023-05-15T10:31:49.305Z,3.10
2023-05-15T10:34:18.828Z,4.90
2023-05-15T10:36:50.935Z,3.70
2023-05-15T10:39:20.169Z,1.90
2023-05-15T10:41:50.838Z,1.10
2023-05-15T10:44:20.656Z,3.50
2023-05-15T10:46:49.290Z,1.60
2023-05-15T10:49:17.676Z,1.00
2023-05-15T10:51:46.658Z,2.20
2023-05-15T10:54:15.541Z,1.00
2023-05-15T10:56:44.502Z,3.10
2023-05-15T10:59:13.216Z,2.60
2023-05-15T11:01:41.942Z,2.50
2023-05-15T11:04:15.837Z,2.70
2023-05-15T11:06:46.680Z,1.80
2023-05-15T11:09:28.116Z,6.20
2023-05-15T11:12:00.591Z,2.50
2023-05-15T11:14:52.125Z,2.00
2023-05-15T11:17:23.902Z,2.10
2023-05-15T11:19:52.136Z,1.10
2023-05-15T11:22:32.245Z,1.00
2023-05-15T11:25:00.487Z,4.00
2023-05-15T11:27:45.292Z,3.60
2023-05-15T11:32:47.015Z,3.90
2023-05-15T11:35:22.942Z,1.00
2023-05-15T11:37:57.268Z,3.00
2023-05-15T11:40:43.434Z,1.50
2023-05-15T11:43:35.331Z,0.80
2023-05-15T11:46:04.040Z,1.30
2023-05-15T11:48:35.404Z,2.50
2023-05-15T11:51:05.787Z,1.30
2023-05-15T11:53:35.630Z,3.20
2023-05-15T11:56:04.050Z,1.50
2023-05-15T11:58:32.500Z,2.20
2023-05-15T12:01:00.915Z,1.90
2023-05-15T12:03:34.638Z,2.00
2023-05-15T12:06:04.076Z,1.90
2023-05-15T12:08:34.410Z,14.50
2023-05-15T12:11:08.279Z,4.20
2023-05-15T12:13:36.768Z,5.20
2023-05-15T12:16:07.299Z,4.30
2023-05-15T12:18:36.338Z,2.10
2023-05-15T12:21:06.215Z,3.90
2023-05-15T12:23:34.702Z,2.40
2023-05-15T12:26:04.159Z,1.80
2023-05-15T12:28:35.242Z,1.40
2023-05-15T12:31:04.368Z,2.50
2023-05-15T12:33:33.232Z,4.20
2023-05-15T12:36:02.068Z,4.30
2023-05-15T12:38:30.919Z,2.30
2023-05-15T12:40:59.584Z,2.50
2023-05-15T12:43:28.147Z,4.70
2023-05-15T12:45:57.306Z,2.80
2023-05-15T12:48:36.127Z,2.40
2023-05-15T12:51:08.537Z,1.90
2023-05-15T12:53:40.211Z,2.00
2023-05-15T12:56:10.066Z,1.70
2023-05-15T12:58:39.366Z,2.30
2023-05-15T13:01:08.186Z,3.30
2023-05-15T13:03:45.541Z,2.50
2023-05-15T13:06:18.517Z,1.40
2023-05-15T13:08:49.496Z,1.60
2023-05-15T13:11:21.197Z,3.50
2023-05-15T13:13:50.861Z,1.90
2023-05-15T13:16:22.202Z,3.00
2023-05-15T13:18:53.802Z,1.50
2023-05-15T13:21:22.518Z,2.60
2023-05-15T13:23:53.615Z,4.40
2023-05-15T13:26:22.021Z,1.50
2023-05-15T13:28:50.388Z,5.00
2023-05-15T13:31:18.769Z,2.00
2023-05-15T13:33:47.252Z,1.20
2023-05-15T13:36:15.647Z,1.00
2023-05-15T13:38:43.865Z,0.80
2023-05-15T13:41:12.291Z,3.40
2023-05-15T13:43:43.696Z,3.20
2023-05-15T13:46:13.341Z,1.90
2023-05-15T13:48:41.828Z,1.20
2023-05-15T13:51:10.546Z,2.90
2023-05-15T13:53:38.859Z,1.20
2023-05-15T13:56:07.303Z,4.00
2023-05-15T13:58:35.857Z,3.10
2023-05-15T14:01:07.495Z,1.40
2023-05-15T14:03:35.997Z,1.70
2023-05-15T14:06:04.897Z,1.20
2023-05-15T14:08:33.438Z,1.30
2023-05-15T14:11:01.935Z,2.40
2023-05-15T14:13:33.173Z,2.30
2023-05-15T14:16:01.742Z,2.20
2023-05-15T14:18:31.983Z,1.30
2023-05-15T14:21:00.698Z,1.70
2023-05-15T14:23:29.298Z,1.60
2023-05-15T14:25:57.744Z,1.50
2023-05-15T14:28:26.051Z,2.80
2023-05-15T14:30:54.519Z,3.50
2023-05-15T14:33:22.900Z,3.50
2023-05-15T14:35:51.722Z,2.90
2023-05-15T14:38:20.152Z,2.50
2023-05-15T14:40:48.568Z,2.80
2023-05-15T14:43:16.782Z,3.20
2023-05-15T14:45:45.188Z,2.80
2023-05-15T14:48:13.590Z,4.50
2023-05-15T14:50:42.000Z,3.30
2023-05-15T14:53:10.308Z,2.70
2023-05-15T14:55:39.403Z,4.80
2023-05-15T14:58:11.483Z,6.90
2023-05-15T15:00:40.174Z,6.70
2023-05-15T15:03:08.604Z,4.40
2023-05-15T15:05:37.356Z,8.90
2023-05-15T15:08:08.425Z,6.10
2023-05-15T15:10:39.499Z,4.00
2023-05-15T15:13:10.256Z,7.00
2023-05-15T15:15:38.609Z,13.40
2023-05-15T15:18:08.081Z,6.60
2023-05-15T15:20:36.566Z,4.80
2023-05-15T15:23:05.310Z,6.00
2023-05-15T15:25:34.661Z,4.40
2023-05-15T15:28:03.238Z,4.50
2023-05-15T15:30:31.532Z,4.70
2023-05-15T15:33:01.019Z,2.80
2023-05-15T15:35:29.593Z,5.50
2023-05-15T15:37:58.193Z,3.90
2023-05-15T15:40:26.857Z,6.00
2023-05-15T15:42:55.536Z,3.40
2023-05-15T15:48:07.449Z,3.10
2023-05-15T15:50:35.779Z,5.40
2023-05-15T15:53:04.070Z,3.20
2023-05-15T15:55:32.387Z,4.70
2023-05-15T15:58:00.616Z,5.60
2023-05-15T16:00:28.960Z,4.80
2023-05-15T16:02:57.477Z,4.60
2023-05-15T16:05:25.901Z,7.80
2023-05-15T16:07:54.206Z,4.50
2023-05-15T16:10:22.737Z,6.60
2023-05-15T16:12:51.351Z,11.80
2023-05-15T16:15:23.406Z,7.30
2023-05-15T16:17:55.322Z,12.70
2023-05-15T16:20:25.276Z,9.30
2023-05-15T16:22:54.289Z,6.60
2023-05-15T16:25:24.986Z,5.00
2023-05-15T16:27:53.274Z,6.90
2023-05-15T16:30:21.791Z,9.00
2023-05-15T16:32:51.154Z,5.80
2023-05-15T16:35:22.386Z,8.20
2023-05-15T16:37:51.095Z,8.20
2023-05-15T16:40:19.615Z,30.30
2023-05-15T16:42:48.004Z,10.00
2023-05-15T16:45:17.280Z,16.20
2023-05-15T16:47:45.805Z,14.70
2023-05-15T16:50:14.419Z,6.80
2023-05-15T16:52:46.182Z,6.70
2023-05-15T16:55:18.259Z,5.80
2023-05-15T16:57:47.307Z,5.00
2023-05-15T17:00:16.915Z,17.90
2023-05-15T17:02:45.682Z,6.80
2023-05-15T17:05:14.678Z,5.30
2023-05-15T17:07:44.837Z,7.40
2023-05-15T17:10:14.106Z,8.40
2023-05-15T17:12:42.661Z,7.00
2023-05-15T17:15:11.850Z,4.10
2023-05-15T17:17:40.271Z,3.70
2023-05-15T17:20:09.690Z,9.10
2023-05-15T17:22:38.192Z,3.40
2023-05-15T17:25:07.893Z,3.20
2023-05-15T17:27:41.489Z,5.10
2023-05-15T17:30:11.930Z,3.90
2023-05-15T17:32:40.820Z,6.50
2023-05-15T17:35:14.624Z,2.70
2023-05-15T17:37:45.352Z,5.10
2023-05-15T17:40:13.602Z,6.90
2023-05-15T17:42:41.809Z,3.50
2023-05-15T17:45:10.626Z,5.50
2023-05-15T17:47:39.153Z,4.40
2023-05-15T17:50:10.194Z,9.40
2023-05-15T17:52:44.167Z,9.10
2023-05-15T17:55:12.643Z,8.00
2023-05-15T17:57:50.249Z,5.30
2023-05-15T18:00:19.709Z,16.80
2023-05-15T18:02:48.215Z,9.80
2023-05-15T18:05:17.376Z,8.00
2023-05-15T18:07:48.250Z,8.30
2023-05-15T18:10:16.784Z,6.50
2023-05-15T18:12:48.360Z,6.20
2023-05-15T18:15:16.792Z,7.90
2023-05-15T18:17:45.200Z,9.20
2023-05-15T18:20:13.468Z,8.60
2023-05-15T18:22:43.344Z,6.90
2023-05-15T18:25:11.818Z,9.30
2023-05-15T18:27:46.641Z,9.00
2023-05-15T18:30:24.587Z,18.40
2023-05-15T18:33:05.185Z,17.60
2023-05-15T18:35:34.780Z,19.10
2023-05-15T18:38:06.499Z,20.50
2023-05-15T18:40:35.059Z,30.80
2023-05-15T18:43:13.741Z,27.30
2023-05-15T18:45:44.994Z,29.90
2023-05-15T18:48:25.547Z,27.30
2023-05-15T18:50:56.016Z,65.90
2023-05-15T18:53:24.368Z,113.70
2023-05-15T18:55:54.151Z,133.90
2023-05-15T18:58:22.608Z,58.60
2023-05-15T19:00:50.953Z,71.30
2023-05-15T19:03:21.014Z,26.40
2023-05-15T19:05:49.637Z,19.20
2023-05-15T19:08:17.987Z,13.90
2023-05-15T19:10:50.539Z,29.10
2023-05-15T19:13:19.300Z,28.40
2023-05-15T19:15:52.332Z,22.90
2023-05-15T19:18:20.929Z,18.20
2023-05-15T19:20:54.608Z,15.20
2023-05-15T19:23:23.860Z,22.10
2023-05-15T19:25:52.870Z,23.10
2023-05-15T19:28:23.908Z,19.20
2023-05-15T19:30:54.305Z,18.20
2023-05-15T19:33:22.801Z,14.60
2023-05-15T19:35:52.652Z,16.40
2023-05-15T19:38:21.066Z,16.80
2023-05-15T19:40:50.251Z,16.70
2023-05-15T19:43:18.609Z,25.90
2023-05-15T19:45:47.671Z,10.90
2023-05-15T19:48:16.364Z,7.90
2023-05-15T19:50:47.600Z,7.50
2023-05-15T19:53:15.935Z,8.10
2023-05-15T19:55:44.298Z,9.40
2023-05-15T19:58:12.631Z,7.40
2023-05-15T20:00:41.439Z,7.50
2023-05-15T20:03:10.357Z,6.20
2023-05-15T20:05:42.207Z,8.20
2023-05-15T20:08:11.183Z,20.50
2023-05-15T20:10:39.354Z,30.60
2023-05-15T20:13:08.731Z,60.50
2023-05-15T20:15:40.179Z,41.90
2023-05-15T20:18:21.071Z,27.10
2023-05-15T20:20:59.404Z,21.50
2023-05-15T20:23:32.961Z,8.30
2023-05-15T20:26:04.782Z,9.50
2023-05-15T20:28:33.113Z,9.90
2023-05-15T20:31:01.869Z,12.70
2023-05-15T20:33:30.384Z,7.10
2023-05-15T20:36:00.406Z,16.70
2023-05-15T20:38:28.677Z,13.00
2023-05-15T20:40:57.464Z,11.00
2023-05-15T20:43:25.675Z,9.80
2023-05-15T20:45:54.297Z,14.40
2023-05-15T20:48:22.632Z,10.20
2023-05-15T20:50:53.230Z,8.60
2023-05-15T20:53:21.949Z,9.70
2023-05-15T20:55:50.253Z,7.10
2023-05-15T20:58:18.598Z,8.60
2023-05-15T21:00:47.010Z,8.40
2023-05-15T21:03:15.535Z,7.50
2023-05-15T21:05:44.930Z,8.40
2023-05-15T21:08:13.858Z,7.70
2023-05-15T21:10:42.101Z,10.20
2023-05-15T21:13:10.348Z,13.90
2023-05-15T21:15:38.656Z,19.40
2023-05-15T21:18:07.664Z,17.50
2023-05-15T21:20:35.871Z,10.00
2023-05-15T21:23:04.130Z,9.20
2023-05-15T21:25:33.609Z,9.00
2023-05-15T21:28:01.869Z,10.30
2023-05-15T21:30:30.788Z,10.20
2023-05-15T21:32:59.214Z,15.00
2023-05-15T21:35:29.064Z,11.90
2023-05-15T21:37:57.794Z,11.90
2023-05-15T21:40:26.295Z,10.00
2023-05-15T21:42:54.790Z,11.30
2023-05-15T21:45:23.300Z,10.10
2023-05-15T21:47:51.639Z,9.70
2023-05-15T21:50:19.844Z,9.20
2023-05-15T21:52:51.092Z,8.70
2023-05-15T21:55:19.398Z,6.60
2023-05-15T21:57:47.631Z,4.80
2023-05-15T22:00:16.459Z,6.20
2023-05-15T22:02:44.763Z,5.70
2023-05-15T22:05:13.457Z,4.20
2023-05-15T22:07:41.878Z,5.30
2023-05-15T22:10:16.525Z,6.40
2023-05-15T22:12:46.557Z,4.70
2023-05-15T22:15:15.203Z,5.50
2023-05-15T22:17:43.488Z,6.60
2023-05-15T22:20:13.501Z,10.30
2023-05-15T22:22:43.028Z,9.60
2023-05-15T22:25:11.989Z,5.30
2023-05-15T22:27:41.106Z,5.30
2023-05-15T22:30:12.140Z,5.10
2023-05-15T22:32:41.656Z,3.30
2023-05-15T22:35:10.510Z,6.20
2023-05-15T22:37:40.890Z,3.80
2023-05-15T22:40:11.095Z,4.80
2023-05-15T22:42:39.340Z,6.40
2023-05-15T22:45:08.339Z,5.00
2023-05-15T22:47:38.123Z,2.80
2023-05-15T22:50:07.806Z,4.80
2023-05-15T22:52:36.029Z,5.00
2023-05-15T22:55:04.534Z,4.80
2023-05-15T22:57:32.912Z,6.70
2023-05-15T23:00:01.516Z,9.50
2023-05-15T23:02:29.891Z,8.70
2023-05-15T23:04:58.149Z,9.60
2023-05-15T23:07:26.449Z,9.50
2023-05-15T23:09:54.716Z,8.10
2023-05-15T23:12:23.086Z,8.70
2023-05-15T23:14:51.463Z,3.60
2023-05-15T23:17:19.759Z,7.80
2023-05-15T23:19:48.071Z,5.50
2023-05-15T23:22:16.334Z,3.30
2023-05-15T23:24:44.764Z,2.40
2023-05-15T23:27:13.232Z,4.20
2023-05-15T23:29:41.560Z,4.40
2023-05-15T23:32:09.757Z,6.40
2023-05-15T23:34:38.026Z,5.80
2023-05-15T23:37:06.333Z,6.90
2023-05-15T23:39:36.068Z,3.10
2023-05-15T23:42:04.624Z,2.30
2023-05-15T23:44:33.113Z,3.50
2023-05-15T23:47:01.447Z,4.40
2023-05-15T23:49:29.814Z,4.00
2023-05-15T23:51:58.250Z,6.10
2023-05-15T23:54:26.439Z,3.40
2023-05-15T23:56:54.914Z,3.80
2023-05-15T23:59:23.398Z,3.40
